Time;durP1;ratioP1;P1;durP2;ratioP2;P2;SDS_P1;SDS_P2;PMS_P1;PMS_P2;Temp;Humidity;BMP_temperature;BMP_pressure;BME280_temperature;BME280_humidity;BME280_pressure;Samples;Min_cycle;Max_cycle;Signal;HPM_P1;HPM_P2
2020/05/29 00:03:03;;;;;;;3;1.1;;;;;;;10.54;63.92773;968.2363;;;;
2020/05/29 00:04:18;;;;;;;2.9;1.2;;;;;;;10.54;64.63086;968.2747;;;;
2020/05/29 00:06:36;;;;;;;3.1;1.2;;;;;;;10.57;63.7959;968.2692;;;;
2020/05/29 00:08:59;;;;;;;3;1.5;;;;;;;10.51;64.36133;968.2036;;;;
2020/05/29 00:11:26;;;;;;;2.1;1.2;;;;;;;10.55;64.32129;968.2732;;;;
2020/05/29 00:13:57;;;;;;;4;1.5;;;;;;;10.57;64.65723;968.2845;;;;
2020/05/29 00:16:15;;;;;;;2.7;1.2;;;;;;;10.58;64.31445;968.2253;;;;
2020/05/29 00:19:22;;;;;;;2.9;1.3;;;;;;;10.67;64.17773;968.2144;;;;
2020/05/29 00:21:03;;;;;;;2.2;1.1;;;;;;;10.84;63.35059;968.2584;;;;
2020/05/29 00:23:28;;;;;;;2.8;1.3;;;;;;;10.86;63.16895;968.2575;;;;
2020/05/29 00:25:53;;;;;;;2.4;1.2;;;;;;;10.94;63.99902;968.2541;;;;
2020/05/29 00:28:19;;;;;;;2.6;1.3;;;;;;;10.84;63.90332;968.2192;;;;
2020/05/29 00:30:44;;;;;;;2.8;1.2;;;;;;;10.76;64.6748;968.1667;;;;
2020/05/29 00:33:10;;;;;;;4.4;1.3;;;;;;;10.9;63.79785;968.1844;;;;
2020/05/29 00:35:35;;;;;;;2.8;1.3;;;;;;;10.77;64.5498;968.1869;;;;
2020/05/29 00:38:02;;;;;;;3.6;1.4;;;;;;;10.87;64.50781;968.1525;;;;
2020/05/29 00:40:27;;;;;;;2.2;1.4;;;;;;;10.89;64.74121;968.1589;;;;
2020/05/29 00:42:54;;;;;;;3.8;1.4;;;;;;;10.78;64.20508;968.1129;;;;
2020/05/29 00:47:50;;;;;;;2.9;1.3;;;;;;;10.93;63.89355;968.0933;;;;
2020/05/29 00:52:35;;;;;;;4.1;1.5;;;;;;;11.1;63.45801;968.0505;;;;
2020/05/29 00:54:59;;;;;;;2.6;1.3;;;;;;;11.16;63.75488;968.0466;;;;
2020/05/29 00:57:24;;;;;;;4.1;1.4;;;;;;;11.21;64.21289;968.0072;;;;
2020/05/29 01:03:16;;;;;;;2.7;2;;;;;;;10.9;64.69629;967.8932;;;;
2020/05/29 01:07:31;;;;;;;3.5;1.8;;;;;;;10.8;65.77539;967.8356;;;;
2020/05/29 01:19:47;;;;;;;3.1;1.8;;;;;;;10.99;65.50488;967.7371;;;;
2020/05/29 01:21:40;;;;;;;4.5;1.7;;;;;;;11;65.44922;967.7733;;;;
2020/05/29 01:24:07;;;;;;;3.8;1.7;;;;;;;10.95;65.62598;967.7787;;;;
2020/05/29 01:26:26;;;;;;;5.2;1.7;;;;;;;10.93;64.90723;967.7687;;;;
2020/05/29 01:28:51;;;;;;;3.6;1.8;;;;;;;10.86;65.72754;967.7218;;;;
2020/05/29 01:31:17;;;;;;;3.1;1.7;;;;;;;10.71;66.82129;967.7512;;;;
2020/05/29 01:33:42;;;;;;;3.4;1.7;;;;;;;10.78;67.32715;967.6881;;;;
2020/05/29 01:36:22;;;;;;;3.9;1.6;;;;;;;10.87;66.4873;967.7129;;;;
2020/05/29 01:38:32;;;;;;;2.9;1.8;;;;;;;10.94;66.39453;967.7394;;;;
2020/05/29 01:40:58;;;;;;;3.8;1.7;;;;;;;10.87;66.28125;967.7171;;;;
2020/05/29 01:43:27;;;;;;;2.6;1.6;;;;;;;11.07;65.85059;967.7103;;;;
2020/05/29 01:48:17;;;;;;;3;1.6;;;;;;;11.05;66.2627;967.6956;;;;
2020/05/29 01:50:44;;;;;;;3;1.9;;;;;;;10.92;65.9209;967.6902;;;;
2020/05/29 01:57:55;;;;;;;2.8;1.7;;;;;;;10.97;64.79883;967.6066;;;;
2020/05/29 02:00:26;;;;;;;3.1;1.7;;;;;;;10.95;64.6582;967.6559;;;;
2020/05/29 02:02:51;;;;;;;3.5;1.4;;;;;;;10.88;65.66113;967.6838;;;;
2020/05/29 02:05:16;;;;;;;5.7;1.5;;;;;;;10.89;64.61426;967.5979;;;;
2020/05/29 02:07:41;;;;;;;2.5;1.5;;;;;;;10.96;65.04004;967.5951;;;;
2020/05/29 02:10:07;;;;;;;2.9;1.6;;;;;;;11.03;65.26758;967.6125;;;;
2020/05/29 02:13:16;;;;;;;3.4;1.5;;;;;;;11.03;65.29199;967.5922;;;;
2020/05/29 02:15:01;;;;;;;2.7;1.5;;;;;;;11.04;64.82129;967.5609;;;;
2020/05/29 02:20:47;;;;;;;4.1;1.6;;;;;;;10.91;65.26074;967.5591;;;;
2020/05/29 02:22:17;;;;;;;3;1.5;;;;;;;10.9;66.00879;967.5572;;;;
2020/05/29 02:29:43;;;;;;;3.4;1.7;;;;;;;10.85;66.40527;967.5134;;;;
2020/05/29 02:32:08;;;;;;;3.2;1.7;;;;;;;10.94;66.5791;967.5446;;;;
2020/05/29 02:36:51;;;;;;;2.8;1.6;;;;;;;10.94;66.22168;967.5942;;;;
2020/05/29 02:40:31;;;;;;;3.9;1.8;;;;;;;10.8;66.77539;967.6032;;;;
2020/05/29 02:41:50;;;;;;;4.2;1.9;;;;;;;10.88;66.1084;967.5483;;;;
2020/05/29 02:51:22;;;;;;;3.6;1.9;;;;;;;10.79;66.91309;967.5513;;;;
2020/05/29 02:58:21;;;;;;;5.2;2.4;;;;;;;10.71;67.47852;967.5443;;;;
2020/05/29 03:03:41;;;;;;;4.7;2.7;;;;;;;10.71;67.34082;967.4529;;;;
2020/05/29 03:05:34;;;;;;;5.1;2.4;;;;;;;10.71;66.81055;967.4236;;;;
2020/05/29 03:15:23;;;;;;;4;2.4;;;;;;;10.55;67.47363;967.3856;;;;
2020/05/29 03:20:15;;;;;;;4.9;2.3;;;;;;;10.54;68.2207;967.4669;;;;
2020/05/29 03:22:33;;;;;;;3.2;2.2;;;;;;;10.57;68.00684;967.4394;;;;
2020/05/29 03:25:07;;;;;;;6.1;2.7;;;;;;;10.44;68.48242;967.4118;;;;
2020/05/29 03:31:41;;;;;;;11.5;5.3;;;;;;;10.45;67.68945;967.2971;;;;
2020/05/29 03:32:28;;;;;;;12.4;5.7;;;;;;;10.29;68.37793;967.3181;;;;
2020/05/29 03:39:52;;;;;;;5.8;2.8;;;;;;;10.1;69.42676;967.2917;;;;
2020/05/29 03:49:24;;;;;;;4;1.9;;;;;;;10.18;68.98047;967.3678;;;;
2020/05/29 03:51:55;;;;;;;4.5;2;;;;;;;10.23;69.06934;967.4037;;;;
2020/05/29 03:54:30;;;;;;;6.6;3.1;;;;;;;10.24;68.31152;967.3778;;;;
2020/05/29 03:56:36;;;;;;;10.1;4.3;;;;;;;10.24;67.85156;967.4267;;;;
2020/05/29 03:59:01;;;;;;;8;3.8;;;;;;;10.16;69.3584;967.4526;;;;
2020/05/29 04:05:01;;;;;;;10.8;5.3;;;;;;;10.18;68.16406;967.3946;;;;
2020/05/29 04:10:03;;;;;;;6.7;4.1;;;;;;;10.21;68.54883;967.4005;;;;
2020/05/29 04:12:14;;;;;;;6.2;3.6;;;;;;;10.24;69.56641;967.3984;;;;
2020/05/29 04:19:27;;;;;;;3.3;1.7;;;;;;;10.04;69.88965;967.3873;;;;
2020/05/29 04:27:04;;;;;;;3.5;1.8;;;;;;;10.28;68.2041;967.5571;;;;
2020/05/29 04:29:12;;;;;;;2.9;1.6;;;;;;;10.33;68.24707;967.5703;;;;
2020/05/29 04:31:38;;;;;;;3.3;1.9;;;;;;;10.34;68.36133;967.5793;;;;
2020/05/29 04:34:05;;;;;;;2.6;1.6;;;;;;;10.46;68;967.6003;;;;
2020/05/29 04:39:30;;;;;;;3.7;2;;;;;;;10.39;69.2002;967.538;;;;
2020/05/29 04:46:09;;;;;;;6.1;3.3;;;;;;;10.49;69.05371;967.497;;;;
2020/05/29 04:48:43;;;;;;;6.7;3.3;;;;;;;10.38;68.69141;967.5173;;;;
2020/05/29 04:55:49;;;;;;;9.1;4;;;;;;;10.54;67.90918;967.4604;;;;
2020/05/29 04:58:19;;;;;;;9.7;4.8;;;;;;;10.6;67.59863;967.4861;;;;
2020/05/29 05:03:05;;;;;;;7.3;2.8;;;;;;;10.75;66.30859;967.4434;;;;
2020/05/29 05:06:17;;;;;;;6.3;2.9;;;;;;;10.76;66.62207;967.46;;;;
2020/05/29 05:07:53;;;;;;;5.6;2.8;;;;;;;10.78;67.2793;967.4199;;;;
2020/05/29 05:20:37;;;;;;;5.2;2.1;;;;;;;11.09;65.28906;967.5237;;;;
2020/05/29 05:23:36;;;;;;;3.9;1.9;;;;;;;11.24;64.38965;967.4996;;;;
2020/05/29 05:24:56;;;;;;;4.3;2.1;;;;;;;11.04;65.02734;967.4719;;;;
2020/05/29 05:27:20;;;;;;;3.5;1.8;;;;;;;11.09;66.29102;967.5458;;;;
2020/05/29 05:32:06;;;;;;;3.2;1.7;;;;;;;11.33;63.63086;967.5251;;;;
2020/05/29 05:34:37;;;;;;;3.9;1.8;;;;;;;11.26;64.25391;967.5411;;;;
2020/05/29 05:36:52;;;;;;;3.4;1.7;;;;;;;11.26;64.43848;967.5338;;;;
2020/05/29 05:39:23;;;;;;;3.5;1.7;;;;;;;11.24;63.85938;967.5528;;;;
2020/05/29 05:42:07;;;;;;;3;1.8;;;;;;;11.22;64.33984;967.5653;;;;
2020/05/29 05:50:03;;;;;;;3.2;1.4;;;;;;;11.04;64.99316;967.5245;;;;
2020/05/29 05:54:46;;;;;;;4.4;1.5;;;;;;;10.95;66.40918;967.5541;;;;
2020/05/29 05:56:29;;;;;;;4.3;1.8;;;;;;;11.08;65.17188;967.588;;;;
2020/05/29 05:58:49;;;;;;;3.8;1.6;;;;;;;11.34;64.24316;967.5623;;;;
2020/05/29 06:02:15;;;;;;;3.4;1.6;;;;;;;11.38;64.62891;967.5822;;;;
2020/05/29 06:03:45;;;;;;;4.4;1.8;;;;;;;11.49;64.19629;967.632;;;;
2020/05/29 06:08:28;;;;;;;5.4;1.9;;;;;;;11.53;65.09082;967.6266;;;;
2020/05/29 06:13:19;;;;;;;4.7;2;;;;;;;11.72;64.66895;967.6808;;;;
2020/05/29 06:16:09;;;;;;;4.4;2.1;;;;;;;11.7;64.73633;967.6256;;;;
2020/05/29 06:20:49;;;;;;;3.9;2;;;;;;;11.71;63.39746;967.6323;;;;
2020/05/29 06:30:12;;;;;;;5;2.2;;;;;;;11.81;63.50488;967.608;;;;
2020/05/29 06:32:38;;;;;;;4.4;2.4;;;;;;;11.84;64.43262;967.5974;;;;
2020/05/29 06:35:14;;;;;;;3.8;1.9;;;;;;;11.88;63.71191;967.5803;;;;
2020/05/29 06:37:26;;;;;;;4.5;2.3;;;;;;;11.74;65.61816;967.5809;;;;
2020/05/29 06:40:02;;;;;;;5;1.9;;;;;;;11.72;65.30371;967.5583;;;;
2020/05/29 06:42:34;;;;;;;3.7;1.8;;;;;;;11.91;63.57617;967.6136;;;;
2020/05/29 06:44:51;;;;;;;3.7;1.6;;;;;;;12.05;64.33594;967.6344;;;;
2020/05/29 06:47:21;;;;;;;4.9;1.9;;;;;;;12.04;63.06641;967.6309;;;;
2020/05/29 06:53:55;;;;;;;4.8;1.9;;;;;;;11.76;64.10938;967.5823;;;;
2020/05/29 06:56:47;;;;;;;4.1;1.8;;;;;;;12.05;65.92969;967.5918;;;;
2020/05/29 07:06:46;;;;;;;4.6;1.7;;;;;;;12.22;64.29199;967.5742;;;;
2020/05/29 07:09:33;;;;;;;4.8;2.1;;;;;;;12.18;65.36035;967.5406;;;;
2020/05/29 07:11:20;;;;;;;4.4;1.9;;;;;;;12.34;64.50684;967.5406;;;;
2020/05/29 07:13:53;;;;;;;6.5;2.3;;;;;;;12.42;64.36914;967.5852;;;;
2020/05/29 07:18:34;;;;;;;5;1.7;;;;;;;12.67;63.36523;967.5339;;;;
2020/05/29 07:21:08;;;;;;;4.8;1.8;;;;;;;12.81;63.00195;967.5463;;;;
2020/05/29 07:26:08;;;;;;;4.3;1.8;;;;;;;12.61;63.10156;967.4311;;;;
2020/05/29 07:30:41;;;;;;;2.7;1.6;;;;;;;12.87;63.2998;967.443;;;;
2020/05/29 07:38:01;;;;;;;3.8;1.8;;;;;;;12.83;61.69824;967.4344;;;;
2020/05/29 07:40:25;;;;;;;5.3;1.8;;;;;;;12.8;62.18066;967.3814;;;;
2020/05/29 07:45:11;;;;;;;5.4;1.8;;;;;;;13.06;61.8125;967.3464;;;;
2020/05/29 07:47:55;;;;;;;3.9;1.8;;;;;;;13.27;61.40332;967.3088;;;;
2020/05/29 07:51:45;;;;;;;4;1.7;;;;;;;13.24;61.94336;967.3013;;;;
2020/05/29 07:52:31;;;;;;;4;1.8;;;;;;;13.42;59.97656;967.3512;;;;
2020/05/29 07:59:46;;;;;;;4.4;1.7;;;;;;;13.34;60.12598;967.3338;;;;
2020/05/29 08:02:17;;;;;;;4.7;2;;;;;;;13.39;60.24902;967.3416;;;;
2020/05/29 08:04:29;;;;;;;6.2;2.3;;;;;;;13.45;60.49023;967.3256;;;;
2020/05/29 08:07:06;;;;;;;6.9;2;;;;;;;13.61;60.65039;967.3627;;;;
2020/05/29 08:12:05;;;;;;;4.2;2;;;;;;;13.64;59.81934;967.3555;;;;
2020/05/29 08:16:42;;;;;;;5.1;1.9;;;;;;;13.91;58.38574;967.4291;;;;
2020/05/29 08:19:03;;;;;;;5.5;2;;;;;;;13.87;58.78418;967.3928;;;;
2020/05/29 08:26:23;;;;;;;5.1;2;;;;;;;13.97;58.48535;967.3716;;;;
2020/05/29 08:28:44;;;;;;;5.7;2.2;;;;;;;14.08;57.73438;967.3368;;;;
2020/05/29 08:31:13;;;;;;;4.9;2.1;;;;;;;14.15;57.80176;967.4375;;;;
2020/05/29 08:33:34;;;;;;;4.4;2.1;;;;;;;14.07;57.94238;967.4221;;;;
2020/05/29 08:36:01;;;;;;;5;1.8;;;;;;;14.19;57.82813;967.3273;;;;
2020/05/29 08:39:42;;;;;;;3.8;1.6;;;;;;;14.27;58.82715;967.2892;;;;
2020/05/29 08:40:50;;;;;;;3.6;1.8;;;;;;;14.48;56.85742;967.2889;;;;
2020/05/29 08:45:47;;;;;;;3.1;1.6;;;;;;;14.46;56.63477;967.2811;;;;
2020/05/29 08:51:21;;;;;;;4.7;1.9;;;;;;;14.49;57.8584;967.3063;;;;
2020/05/29 08:53:39;;;;;;;4;1.9;;;;;;;14.62;56.19043;967.2847;;;;
2020/05/29 08:56:15;;;;;;;4.5;1.8;;;;;;;14.45;56.92285;967.2463;;;;
2020/05/29 08:58:41;;;;;;;4.2;2;;;;;;;14.7;56.68945;967.2755;;;;
2020/05/29 09:03:24;;;;;;;4;1.9;;;;;;;15.03;55.45313;967.2885;;;;
2020/05/29 09:06:07;;;;;;;7.4;2;;;;;;;15;55.87988;967.2569;;;;
2020/05/29 09:08:12;;;;;;;3.7;1.6;;;;;;;15.17;55.32031;967.2249;;;;
2020/05/29 09:13:07;;;;;;;3.8;1.8;;;;;;;15.25;54.75977;967.2241;;;;
2020/05/29 09:20:56;;;;;;;7.1;2;;;;;;;15.33;55.33887;967.1644;;;;
2020/05/29 09:22:51;;;;;;;4.6;1.6;;;;;;;15.35;55.11035;967.2092;;;;
2020/05/29 09:27:32;;;;;;;2.9;1.5;;;;;;;15.79;54.09375;967.194;;;;
2020/05/29 09:35:49;;;;;;;6.1;1.8;;;;;;;15.96;53.30957;967.1909;;;;
2020/05/29 09:44:32;;;;;;;2.5;1.4;;;;;;;16.06;52.63477;967.0743;;;;
2020/05/29 09:46:55;;;;;;;2.7;1.4;;;;;;;16.15;52.0625;967.0924;;;;
2020/05/29 09:49:22;;;;;;;2.9;1.5;;;;;;;16.28;53.0459;967.0675;;;;
2020/05/29 09:51:59;;;;;;;4.3;1.5;;;;;;;16.19;51.35742;967.0659;;;;
2020/05/29 09:54:20;;;;;;;4.1;1.7;;;;;;;16.11;51.87109;967.0708;;;;
2020/05/29 09:56:47;;;;;;;3.7;1.7;;;;;;;16.18;51.89258;966.9886;;;;
2020/05/29 09:59:26;;;;;;;4.9;1.5;;;;;;;16.28;51.47266;966.9408;;;;
2020/05/29 10:01:33;;;;;;;4.2;1.5;;;;;;;16.32;52.35156;966.9764;;;;
2020/05/29 10:07:30;;;;;;;2.2;1.3;;;;;;;16.21;53.67969;966.9367;;;;
2020/05/29 10:08:45;;;;;;;4.1;1.5;;;;;;;15.91;52.66406;966.9285;;;;
2020/05/29 10:16:41;;;;;;;3.1;1.4;;;;;;;16.34;51.79492;966.9413;;;;
2020/05/29 10:20:53;;;;;;;4.1;1.5;;;;;;;16.1;52.31445;966.8463;;;;
2020/05/29 10:23:22;;;;;;;2.9;1.6;;;;;;;16.29;52.58105;966.8191;;;;
2020/05/29 10:25:45;;;;;;;4.8;1.9;;;;;;;16.52;51.76855;966.8152;;;;
2020/05/29 10:33:13;;;;;;;2.8;1.3;;;;;;;16.15;52.38867;966.8128;;;;
2020/05/29 10:37:43;;;;;;;3.7;1.8;;;;;;;16.35;53.22949;966.7324;;;;
2020/05/29 10:42:36;;;;;;;4.1;1.4;;;;;;;16.27;50.84082;966.6584;;;;
2020/05/29 10:47:29;;;;;;;2.6;1.6;;;;;;;16.5;50.27246;966.6594;;;;
2020/05/29 10:49:48;;;;;;;3.3;1.6;;;;;;;16.19;51.90527;966.7006;;;;
2020/05/29 10:57:43;;;;;;;3.5;1.7;;;;;;;16.11;52.07031;966.593;;;;
2020/05/29 11:04:21;;;;;;;2.3;1.5;;;;;;;15.84;52.86523;966.5698;;;;
2020/05/29 11:06:46;;;;;;;3.4;1.5;;;;;;;16.26;52.47168;966.5301;;;;
2020/05/29 11:09:09;;;;;;;3.6;1.6;;;;;;;16.64;51.71191;966.4194;;;;
2020/05/29 11:14:09;;;;;;;2.5;1.6;;;;;;;16.67;50.14063;966.3884;;;;
2020/05/29 11:16:34;;;;;;;3.1;1.4;;;;;;;16.55;50.2793;966.3661;;;;
2020/05/29 11:23:47;;;;;;;3.2;1.3;;;;;;;16.47;50.38672;966.2874;;;;
2020/05/29 11:26:13;;;;;;;3.6;1.5;;;;;;;16.94;50.27734;966.2723;;;;
2020/05/29 11:28:37;;;;;;;2.9;1.3;;;;;;;17.37;48.77051;966.1967;;;;
2020/05/29 11:38:16;;;;;;;2.9;1.3;;;;;;;17.68;48.57129;966.2075;;;;
2020/05/29 11:40:41;;;;;;;3.7;1.6;;;;;;;17.65;50.1709;966.1052;;;;
2020/05/29 11:42:57;;;;;;;2.2;1.4;;;;;;;17.56;48.6748;966.1208;;;;
2020/05/29 11:45:22;;;;;;;3.3;1.5;;;;;;;17.52;48.23828;966.0701;;;;
2020/05/29 11:47:48;;;;;;;2.9;1.3;;;;;;;17.45;48.52246;966.0569;;;;
2020/05/29 11:50:13;;;;;;;3.3;1.4;;;;;;;17.19;48.23633;966.1121;;;;
2020/05/29 11:52:39;;;;;;;2.6;1.3;;;;;;;16.91;49.68945;965.9841;;;;
2020/05/29 11:55:04;;;;;;;2.6;1.3;;;;;;;16.74;49.81055;965.9977;;;;
2020/05/29 11:57:30;;;;;;;2.5;1.6;;;;;;;16.51;50.87012;965.9553;;;;
2020/05/29 11:59:55;;;;;;;3.2;1.4;;;;;;;16.33;51.93262;965.986;;;;
2020/05/29 12:02:20;;;;;;;5.2;1.9;;;;;;;16.3;51.59082;965.9819;;;;
2020/05/29 12:04:46;;;;;;;3.2;1.7;;;;;;;16.15;51.44629;965.9175;;;;
2020/05/29 12:07:11;;;;;;;3.3;1.5;;;;;;;16.05;51.88672;965.9116;;;;
2020/05/29 12:09:36;;;;;;;5.2;1.7;;;;;;;15.97;51.20215;965.887;;;;
2020/05/29 12:12:01;;;;;;;4.7;1.8;;;;;;;16.01;51.2998;965.8834;;;;
2020/05/29 12:14:26;;;;;;;3.3;1.7;;;;;;;16;51.87109;965.9094;;;;
2020/05/29 12:19:28;;;;;;;3.5;1.5;;;;;;;16.13;52.92188;965.872;;;;
2020/05/29 12:21:43;;;;;;;4.4;1.7;;;;;;;16.03;53.95996;965.8899;;;;
2020/05/29 12:24:07;;;;;;;3.4;1.8;;;;;;;15.73;55.33203;965.8849;;;;
2020/05/29 12:26:32;;;;;;;4.9;2;;;;;;;15.57;55.90527;965.9308;;;;
2020/05/29 12:28:57;;;;;;;5.8;1.9;;;;;;;15.55;55.7041;965.9528;;;;
2020/05/29 12:31:22;;;;;;;3.5;1.8;;;;;;;15.58;55.79004;965.9547;;;;
2020/05/29 12:33:48;;;;;;;3.6;1.8;;;;;;;15.38;55.98633;966.0062;;;;
2020/05/29 12:36:13;;;;;;;5.3;1.9;;;;;;;15.34;56.27148;965.9529;;;;
2020/05/29 12:38:39;;;;;;;4.3;1.9;;;;;;;15.44;55.93555;965.9469;;;;
2020/05/29 12:41:04;;;;;;;5.5;2;;;;;;;15.17;57.13477;965.8586;;;;
2020/05/29 12:43:29;;;;;;;5.7;1.9;;;;;;;15.13;58.14063;965.8833;;;;
2020/05/29 12:45:54;;;;;;;5.6;2.2;;;;;;;15.12;58.17383;965.8242;;;;
2020/05/29 12:48:19;;;;;;;4.3;1.9;;;;;;;14.95;58.96582;965.8376;;;;
2020/05/29 12:50:46;;;;;;;4.2;1.9;;;;;;;15.09;58.35645;965.8083;;;;
2020/05/29 12:53:12;;;;;;;4.5;2;;;;;;;15.18;58.83398;965.8084;;;;
2020/05/29 12:55:38;;;;;;;3.5;1.9;;;;;;;14.97;59.67676;965.8167;;;;
2020/05/29 12:58:03;;;;;;;3.3;1.8;;;;;;;14.94;59.69629;965.7506;;;;
2020/05/29 13:00:29;;;;;;;3.7;1.8;;;;;;;14.92;59.87988;965.7495;;;;
2020/05/29 13:02:54;;;;;;;4.6;2.1;;;;;;;14.92;60.08789;965.7126;;;;
2020/05/29 13:05:20;;;;;;;5;2;;;;;;;14.88;60.88574;965.6941;;;;
2020/05/29 13:07:50;;;;;;;3.2;1.9;;;;;;;14.98;59.85254;965.6197;;;;
2020/05/29 13:10:15;;;;;;;5;1.8;;;;;;;15.06;60.09766;965.6848;;;;
2020/05/29 13:12:40;;;;;;;4.7;2;;;;;;;15.07;59.13184;965.6117;;;;
2020/05/29 13:15:05;;;;;;;5.3;1.9;;;;;;;14.83;59.26367;965.6064;;;;
2020/05/29 13:17:31;;;;;;;2.7;1.8;;;;;;;14.83;59.80957;965.6122;;;;
2020/05/29 13:19:56;;;;;;;4.1;1.8;;;;;;;14.79;59.40723;965.6085;;;;
2020/05/29 13:22:21;;;;;;;3.2;1.8;;;;;;;14.81;58.89941;965.5178;;;;
2020/05/29 13:27:11;;;;;;;3.1;1.5;;;;;;;14.81;58.05078;965.4669;;;;
2020/05/29 13:29:36;;;;;;;3;1.7;;;;;;;14.75;57.59082;965.4391;;;;
2020/05/29 13:32:01;;;;;;;4.2;1.5;;;;;;;14.79;58.08398;965.4567;;;;
2020/05/29 13:34:26;;;;;;;4.1;1.5;;;;;;;14.97;57.91016;965.4539;;;;
2020/05/29 13:36:51;;;;;;;3.3;1.5;;;;;;;15.04;56.47754;965.4061;;;;
2020/05/29 13:39:17;;;;;;;3.6;1.6;;;;;;;15.05;55.875;965.4138;;;;
2020/05/29 13:44:08;;;;;;;2.3;1.6;;;;;;;15.01;55.625;965.3951;;;;
2020/05/29 13:46:33;;;;;;;2.6;1.5;;;;;;;15.12;55.97656;965.394;;;;
2020/05/29 13:49:00;;;;;;;2.6;1.8;;;;;;;15.08;56.80859;965.3961;;;;
2020/05/29 13:53:55;;;;;;;3;2;;;;;;;14.97;55.74707;965.3718;;;;
2020/05/29 13:56:16;;;;;;;3.2;1.7;;;;;;;15;56.57715;965.35;;;;
2020/05/29 13:58:53;;;;;;;3.8;1.7;;;;;;;14.99;56.14453;965.284;;;;
2020/05/29 14:03:37;;;;;;;3.6;1.9;;;;;;;15.11;57.00977;965.3398;;;;
2020/05/29 14:08:29;;;;;;;2.7;1.8;;;;;;;15.15;57.51563;965.2794;;;;
2020/05/29 14:10:58;;;;;;;3.4;1.9;;;;;;;15.24;56.1084;965.286;;;;
2020/05/29 14:15:47;;;;;;;4.4;1.8;;;;;;;15.25;56.81934;965.2252;;;;
2020/05/29 14:18:32;;;;;;;2.8;1.7;;;;;;;15.38;56.31152;965.1627;;;;
2020/05/29 14:20:36;;;;;;;3.9;1.9;;;;;;;15.29;56.60449;965.1831;;;;
2020/05/29 14:22:58;;;;;;;2.9;2;;;;;;;15.2;56.83594;965.1593;;;;
2020/05/29 14:31:04;;;;;;;3.6;1.7;;;;;;;15.35;55.78418;965.0786;;;;
2020/05/29 14:37:07;;;;;;;2.9;1.7;;;;;;;15.59;55.55859;965.0167;;;;
2020/05/29 14:38:50;;;;;;;3.9;1.8;;;;;;;15.66;55.68555;965.0139;;;;
2020/05/29 14:41:57;;;;;;;4.3;1.9;;;;;;;15.75;54.87988;965.0338;;;;
2020/05/29 14:50:40;;;;;;;3.3;1.8;;;;;;;15.8;54.92188;964.9356;;;;
2020/05/29 14:52:54;;;;;;;3;1.7;;;;;;;15.86;54.26563;964.9459;;;;
2020/05/29 14:55:18;;;;;;;3.8;1.9;;;;;;;15.81;53.80371;964.9413;;;;
2020/05/29 14:57:50;;;;;;;5.6;1.9;;;;;;;15.86;53.54199;964.8744;;;;
2020/05/29 15:01:56;;;;;;;2.9;1.9;;;;;;;15.97;52.4043;964.8965;;;;
2020/05/29 15:04:57;;;;;;;5.4;1.9;;;;;;;16.05;52.69238;964.8772;;;;
2020/05/29 15:07:20;;;;;;;3.2;1.7;;;;;;;16.08;53.36133;964.8962;;;;
2020/05/29 15:09:42;;;;;;;3.3;1.7;;;;;;;16.28;52.74219;964.8688;;;;
2020/05/29 15:14:38;;;;;;;3.3;1.8;;;;;;;16.35;53.03125;964.8402;;;;
2020/05/29 15:17:09;;;;;;;3;1.8;;;;;;;16.26;53.5918;964.7773;;;;
2020/05/29 15:19:35;;;;;;;5.5;2;;;;;;;16.29;53.16406;964.7955;;;;
2020/05/29 15:21:55;;;;;;;3.1;1.7;;;;;;;16.2;53.52637;964.7374;;;;
2020/05/29 15:26:51;;;;;;;2.2;1.6;;;;;;;16.18;53.05859;964.7054;;;;
2020/05/29 15:34:50;;;;;;;2.2;1.6;;;;;;;16.44;50.79004;964.5922;;;;
2020/05/29 15:36:23;;;;;;;2.7;1.4;;;;;;;16.68;51.34375;964.6105;;;;
2020/05/29 15:39:25;;;;;;;3.1;1.4;;;;;;;16.75;50.73438;964.554;;;;
2020/05/29 15:41:12;;;;;;;4.3;1.7;;;;;;;16.54;51.95703;964.502;;;;
2020/05/29 15:43:33;;;;;;;3.3;1.5;;;;;;;16.72;49.375;964.496;;;;
2020/05/29 15:45:56;;;;;;;2.9;1.3;;;;;;;16.87;50.72363;964.533;;;;
2020/05/29 15:48:19;;;;;;;3.7;1.8;;;;;;;16.91;49.47949;964.4623;;;;
2020/05/29 15:50:44;;;;;;;3;1.5;;;;;;;16.87;50.80566;964.4852;;;;
2020/05/29 15:53:09;;;;;;;3;1.5;;;;;;;16.97;49.07715;964.4592;;;;
2020/05/29 15:55:35;;;;;;;3.5;1.7;;;;;;;16.74;49.21484;964.4723;;;;
2020/05/29 15:58:00;;;;;;;2.6;1.6;;;;;;;16.87;48.35352;964.4295;;;;
2020/05/29 16:00:25;;;;;;;2.7;1.5;;;;;;;17.07;48.07227;964.372;;;;
2020/05/29 16:02:50;;;;;;;3.5;1.5;;;;;;;17.06;48.69043;964.34;;;;
2020/05/29 16:05:15;;;;;;;6.2;1.5;;;;;;;17.23;47.96094;964.332;;;;
2020/05/29 16:07:40;;;;;;;2.7;1.3;;;;;;;17.27;49.63672;964.3295;;;;
2020/05/29 16:10:06;;;;;;;4.4;1.5;;;;;;;17.28;47.58008;964.303;;;;
2020/05/29 16:12:31;;;;;;;2;1.3;;;;;;;17.24;49.04785;964.3024;;;;
2020/05/29 16:14:57;;;;;;;2.5;1.4;;;;;;;17.04;48.88574;964.2584;;;;
2020/05/29 16:17:32;;;;;;;2.7;1.4;;;;;;;17.14;47.93848;964.2633;;;;
2020/05/29 16:19:47;;;;;;;3.1;1.5;;;;;;;17.08;47.60547;964.2429;;;;
2020/05/29 16:22:12;;;;;;;3.5;1.7;;;;;;;16.99;48.86914;964.2477;;;;
2020/05/29 16:24:37;;;;;;;3.8;1.7;;;;;;;16.97;50.30371;964.2336;;;;
2020/05/29 16:27:03;;;;;;;3.3;1.8;;;;;;;16.94;50.98926;964.2302;;;;
2020/05/29 16:29:29;;;;;;;3.9;1.8;;;;;;;17.05;50.87305;964.2369;;;;
2020/05/29 16:32:03;;;;;;;4;2.1;;;;;;;16.88;51.54199;964.2475;;;;
2020/05/29 16:34:19;;;;;;;3.6;2.1;;;;;;;16.74;51.53711;964.3265;;;;
2020/05/29 16:36:44;;;;;;;4.2;2;;;;;;;16.75;51.15234;964.2729;;;;
2020/05/29 16:39:09;;;;;;;2.8;1.8;;;;;;;16.74;51.52637;964.2006;;;;
2020/05/29 16:41:36;;;;;;;3.3;2.1;;;;;;;16.85;50.69824;964.2161;;;;
2020/05/29 16:43:59;;;;;;;3.4;1.9;;;;;;;16.86;49.50781;964.1461;;;;
2020/05/29 16:46:24;;;;;;;3.2;1.9;;;;;;;16.79;50.01367;964.2406;;;;
2020/05/29 16:48:50;;;;;;;4.1;1.9;;;;;;;16.63;51.12793;964.1855;;;;
2020/05/29 16:51:15;;;;;;;3.5;2;;;;;;;16.61;51.65039;964.1906;;;;
2020/05/29 16:53:40;;;;;;;2.6;1.6;;;;;;;16.62;51.88477;964.1937;;;;
2020/05/29 16:56:05;;;;;;;3.3;2;;;;;;;16.71;52;964.1644;;;;
2020/05/29 16:58:30;;;;;;;4.2;1.8;;;;;;;16.83;52.19043;964.2061;;;;
2020/05/29 17:00:55;;;;;;;2.4;1.7;;;;;;;16.72;52.12988;964.1947;;;;
2020/05/29 17:03:21;;;;;;;1.8;1.6;;;;;;;16.72;52.58496;964.2236;;;;
2020/05/29 17:05:46;;;;;;;3.2;1.9;;;;;;;16.79;51.69531;964.2234;;;;
2020/05/29 17:08:11;;;;;;;2.9;2.1;;;;;;;16.67;52.05469;964.1883;;;;
2020/05/29 17:10:36;;;;;;;4.6;2;;;;;;;16.71;52.95898;964.2039;;;;
2020/05/29 17:13:01;;;;;;;5.1;2.2;;;;;;;16.64;52.86816;964.1931;;;;
2020/05/29 17:15:26;;;;;;;4.3;2.2;;;;;;;16.38;52.92969;964.1403;;;;
2020/05/29 17:17:51;;;;;;;2.7;1.9;;;;;;;16.48;52.49805;964.1808;;;;
2020/05/29 17:20:17;;;;;;;3.3;2;;;;;;;16.69;52.78027;964.1983;;;;
2020/05/29 17:22:42;;;;;;;3.6;2.1;;;;;;;16.69;52.38379;964.1501;;;;
2020/05/29 17:25:16;;;;;;;4.4;1.7;;;;;;;16.76;50.93262;964.1344;;;;
2020/05/29 17:27:34;;;;;;;3;1.5;;;;;;;16.64;49.93945;964.1658;;;;
2020/05/29 17:29:59;;;;;;;2.6;1.3;;;;;;;16.51;50.06348;964.1573;;;;
2020/05/29 17:32:24;;;;;;;2.3;1.4;;;;;;;16.45;50.46484;964.0969;;;;
2020/05/29 17:34:49;;;;;;;2.8;1.4;;;;;;;16.42;50.63672;964.1083;;;;
2020/05/29 17:37:14;;;;;;;3;1.5;;;;;;;16.31;51.27734;964.1467;;;;
2020/05/29 17:39:39;;;;;;;2.7;1.5;;;;;;;16.31;51.03223;964.1813;;;;
2020/05/29 17:42:07;;;;;;;3.4;1.7;;;;;;;16.36;51.11914;964.1047;;;;
2020/05/29 17:44:29;;;;;;;3.1;1.7;;;;;;;16.25;51.8877;964.1669;;;;
2020/05/29 17:47:40;;;;;;;3.6;1.6;;;;;;;16.17;51.9834;964.1789;;;;
2020/05/29 17:49:19;;;;;;;3.9;1.7;;;;;;;16.15;51.75977;964.1655;;;;
2020/05/29 17:51:45;;;;;;;2.4;1.5;;;;;;;16.04;51.96875;964.1594;;;;
2020/05/29 17:54:10;;;;;;;2.4;1.5;;;;;;;15.96;51.95801;964.0709;;;;
2020/05/29 17:56:35;;;;;;;2.1;1.4;;;;;;;15.88;51.85547;964.1287;;;;
2020/05/29 17:59:00;;;;;;;2.4;1.3;;;;;;;15.79;51.48438;964.0814;;;;
2020/05/29 18:01:25;;;;;;;2.6;1.5;;;;;;;15.78;51.82129;964.0945;;;;
2020/05/29 18:03:51;;;;;;;2.4;1.5;;;;;;;15.75;52.28418;964.0615;;;;
2020/05/29 18:06:16;;;;;;;3.4;1.5;;;;;;;15.78;50.91113;964.0601;;;;
2020/05/29 18:08:42;;;;;;;1.9;1.3;;;;;;;15.81;50.82227;964.0413;;;;
2020/05/29 18:11:07;;;;;;;2.8;1.4;;;;;;;15.75;51.88672;964.0475;;;;
2020/05/29 18:13:38;;;;;;;2;1.3;;;;;;;15.77;51.81934;963.9977;;;;
2020/05/29 18:16:12;;;;;;;2.1;1.3;;;;;;;15.73;51.66309;964.0457;;;;
2020/05/29 18:18:23;;;;;;;1.7;1.3;;;;;;;15.7;51.46191;963.9962;;;;
2020/05/29 18:20:48;;;;;;;3.2;1.5;;;;;;;15.72;51.96484;964.0128;;;;
2020/05/29 18:23:13;;;;;;;3.1;1.4;;;;;;;15.74;52.01465;963.9563;;;;
2020/05/29 18:25:39;;;;;;;2.9;1.4;;;;;;;15.67;52.95996;963.9344;;;;
2020/05/29 18:28:04;;;;;;;2.5;1.5;;;;;;;15.66;52.46973;963.8823;;;;
2020/05/29 18:30:30;;;;;;;2.2;1.5;;;;;;;15.6;52.70703;963.8918;;;;
2020/05/29 18:32:55;;;;;;;3.6;1.6;;;;;;;15.59;52.74219;963.905;;;;
2020/05/29 18:35:21;;;;;;;2.2;1.6;;;;;;;15.58;52.64746;963.9261;;;;
2020/05/29 18:37:46;;;;;;;3.2;1.7;;;;;;;15.57;53.00684;963.8825;;;;
2020/05/29 18:40:12;;;;;;;2.7;1.6;;;;;;;15.39;52.99609;963.8862;;;;
2020/05/29 18:45:03;;;;;;;2.1;1.5;;;;;;;15.5;53.52148;963.9208;;;;
2020/05/29 18:47:28;;;;;;;3.3;1.6;;;;;;;15.43;53.85156;963.8339;;;;
2020/05/29 18:49:53;;;;;;;2.9;1.4;;;;;;;15.47;52.85449;963.8664;;;;
2020/05/29 18:52:19;;;;;;;2.6;1.5;;;;;;;15.33;53.72168;963.8176;;;;
2020/05/29 18:54:45;;;;;;;3.7;1.7;;;;;;;15.32;54.6416;963.8317;;;;
2020/05/29 18:57:26;;;;;;;2.7;1.8;;;;;;;15.36;53.63281;963.8647;;;;
2020/05/29 19:02:00;;;;;;;2.8;1.8;;;;;;;15.25;54.19043;963.8695;;;;
2020/05/29 19:04:30;;;;;;;2.7;2.1;;;;;;;15.19;54.35645;963.8781;;;;
2020/05/29 19:07:08;;;;;;;2.9;1.8;;;;;;;14.94;55.52344;963.8456;;;;
2020/05/29 19:11:48;;;;;;;2.9;1.7;;;;;;;15.08;55.95898;963.8223;;;;
2020/05/29 19:14:17;;;;;;;3.4;2;;;;;;;14.89;56.16699;963.8377;;;;
2020/05/29 19:19:02;;;;;;;3.3;2.2;;;;;;;14.86;56.74512;963.8636;;;;
2020/05/29 19:26:41;;;;;;;3;2.3;;;;;;;14.69;57.44336;963.9033;;;;
2020/05/29 19:31:13;;;;;;;3.4;2.2;;;;;;;14.49;59.14746;963.9484;;;;